Time;durP1;ratioP1;P1;durP2;ratioP2;P2;SDS_P1;SDS_P2;PMS_P1;PMS_P2;Temp;Humidity;BMP_temperature;BMP_pressure;BME280_temperature;BME280_humidity;BME280_pressure;Samples;Min_cycle;Max_cycle;Signal;HPM_P1;HPM_P2
2023/04/25 00:02:03;;;;;;;5.93;2.10;;;11.30;92.80;;;;;;5007834;28;20096;-67
2023/04/25 00:04:29;;;;;;;5.18;1.67;;;11.30;93.00;;;;;;5009297;28;20037;-67
2023/04/25 00:06:55;;;;;;;4.45;1.95;;;11.10;93.10;;;;;;5012064;28;20040;-67
2023/04/25 00:09:22;;;;;;;3.90;1.70;;;11.00;93.40;;;;;;5011937;28;20052;-67
2023/04/25 00:11:48;;;;;;;6.13;1.83;;;11.00;93.70;;;;;;5013519;28;20033;-67
2023/04/25 00:14:14;;;;;;;5.32;2.30;;;11.10;94.00;;;;;;5014573;28;20034;-68
2023/04/25 00:19:21;;;;;;;4.38;2.10;;;11.00;93.70;;;;;;5065069;23;20045;-68
2023/04/25 00:21:47;;;;;;;6.20;2.15;;;11.00;93.80;;;;;;4956195;28;20026;-68
2023/04/25 00:24:13;;;;;;;7.55;2.40;;;11.10;94.10;;;;;;4958409;28;20116;-67
2023/04/25 00:29:07;;;;;;;3.45;2.10;;;11.10;93.50;;;;;;4970551;28;20506;-67
2023/04/25 00:31:33;;;;;;;4.22;2.00;;;11.00;93.90;;;;;;4939104;28;20035;-68
2023/04/25 00:33:58;;;;;;;2.42;1.63;;;11.00;94.10;;;;;;4947095;28;20094;-68
2023/04/25 00:36:25;;;;;;;8.52;1.90;;;11.00;94.10;;;;;;4953877;28;20035;-68
2023/04/25 00:38:54;;;;;;;5.55;2.90;;;11.00;94.10;;;;;;4952793;28;20027;-67
2023/04/25 00:41:20;;;;;;;5.85;2.28;;;11.10;93.90;;;;;;4957279;28;20034;-68
2023/04/25 00:43:46;;;;;;;5.20;2.10;;;11.00;93.90;;;;;;4932591;28;20527;-68
2023/04/25 00:46:12;;;;;;;4.30;2.13;;;11.00;93.50;;;;;;4952988;28;20047;-68
2023/04/25 00:48:39;;;;;;;5.50;2.03;;;11.00;94.20;;;;;;4954209;28;20524;-68
2023/04/25 00:51:06;;;;;;;3.25;1.92;;;11.00;94.30;;;;;;4951291;28;20035;-68
2023/04/25 00:53:32;;;;;;;3.25;2.10;;;11.00;94.10;;;;;;4942086;28;20046;-68
2023/04/25 00:55:58;;;;;;;7.82;2.45;;;11.00;93.80;;;;;;4951998;28;20079;-68
2023/04/25 00:58:24;;;;;;;4.10;1.80;;;11.00;93.60;;;;;;4953041;28;20034;-67
2023/04/25 01:00:54;;;;;;;6.05;2.00;;;11.00;93.60;;;;;;4932129;28;20558;-67
2023/04/25 01:03:20;;;;;;;5.45;2.20;;;10.90;93.40;;;;;;4951961;28;20034;-67
2023/04/25 01:05:46;;;;;;;5.28;2.08;;;10.90;93.60;;;;;;4983821;22;20100;-67
2023/04/25 01:08:13;;;;;;;4.72;2.30;;;10.80;94.00;;;;;;4984197;28;20045;-67
2023/04/25 01:10:39;;;;;;;9.05;2.72;;;10.80;93.70;;;;;;4988131;28;20132;-67
2023/04/25 01:13:05;;;;;;;5.28;2.08;;;10.70;94.00;;;;;;4985818;28;20026;-67
2023/04/25 01:15:31;;;;;;;7.28;2.15;;;10.70;94.40;;;;;;4969020;28;20184;-67
2023/04/25 01:17:58;;;;;;;6.20;2.10;;;10.80;94.60;;;;;;4971875;28;20037;-67
2023/04/25 01:20:24;;;;;;;5.40;2.10;;;10.70;94.20;;;;;;4971366;28;20030;-69
2023/04/25 01:22:52;;;;;;;6.45;2.05;;;10.60;94.40;;;;;;4974041;28;20140;-69
2023/04/25 01:25:18;;;;;;;4.05;2.35;;;10.60;94.20;;;;;;4991838;28;20041;-69
2023/04/25 01:27:45;;;;;;;9.13;2.60;;;10.50;94.80;;;;;;5099517;23;20051;-69
2023/04/25 01:30:11;;;;;;;6.57;2.50;;;10.40;94.70;;;;;;4969156;28;20045;-69
2023/04/25 01:32:38;;;;;;;4.40;2.25;;;10.30;94.90;;;;;;4962523;28;20689;-69
2023/04/25 01:35:09;;;;;;;5.18;2.30;;;10.20;95.10;;;;;;4970142;28;20038;-69
2023/04/25 01:37:38;;;;;;;5.25;2.30;;;10.30;95.30;;;;;;4964817;28;20782;-69
2023/04/25 01:40:05;;;;;;;5.28;2.03;;;10.40;95.10;;;;;;4963725;28;20081;-69
2023/04/25 01:42:33;;;;;;;5.13;2.22;;;10.50;94.80;;;;;;4966336;28;20110;-67
2023/04/25 01:44:59;;;;;;;6.35;2.42;;;10.40;94.50;;;;;;4961805;28;20062;-66
2023/04/25 01:47:26;;;;;;;6.93;2.45;;;10.40;94.70;;;;;;4961297;28;20044;-67
2023/04/25 01:49:52;;;;;;;4.43;2.17;;;10.50;94.80;;;;;;4963819;28;20030;-66
2023/04/25 01:52:18;;;;;;;8.10;2.58;;;10.60;94.60;;;;;;4967179;28;20819;-67
2023/04/25 01:54:44;;;;;;;5.53;2.25;;;10.70;94.60;;;;;;4965055;28;20048;-67
2023/04/25 01:57:11;;;;;;;8.68;2.20;;;10.70;94.40;;;;;;4968315;28;20532;-67
2023/04/25 01:59:40;;;;;;;7.18;2.67;;;10.70;93.90;;;;;;4963866;28;20034;-68
2023/04/25 02:02:38;;;;;;;7.95;2.45;;;10.70;94.00;;;;;;4968111;28;20713;-68
2023/04/25 02:05:06;;;;;;;5.88;2.47;;;10.70;93.90;;;;;;4967855;28;20035;-69
2023/04/25 02:07:35;;;;;;;4.93;2.35;;;10.70;94.10;;;;;;4964076;28;20189;-69
2023/04/25 02:10:01;;;;;;;7.35;2.88;;;10.60;94.10;;;;;;4965545;28;20494;-68
2023/04/25 02:12:31;;;;;;;6.93;2.80;;;10.70;94.10;;;;;;4964082;28;20027;-68
2023/04/25 02:15:23;;;;;;;9.15;3.15;;;10.70;94.10;;;;;;4959514;28;20070;-69
2023/04/25 02:17:53;;;;;;;5.78;2.85;;;10.60;93.90;;;;;;4961171;28;20038;-66
2023/04/25 02:20:21;;;;;;;6.82;3.63;;;10.50;94.30;;;;;;4966088;28;20062;-68
2023/04/25 02:22:47;;;;;;;5.22;2.55;;;10.50;94.20;;;;;;4961043;28;20026;-69
2023/04/25 02:25:13;;;;;;;7.10;2.83;;;10.60;94.30;;;;;;4962881;28;20031;-69
2023/04/25 02:27:40;;;;;;;4.38;2.40;;;10.60;94.30;;;;;;4963783;28;20374;-69
2023/04/25 02:30:07;;;;;;;8.95;2.70;;;10.50;94.40;;;;;;4960397;28;20045;-69
2023/04/25 02:32:34;;;;;;;7.03;3.15;;;10.50;94.30;;;;;;5042988;23;20126;-69
2023/04/25 02:35:03;;;;;;;4.93;2.85;;;10.50;94.70;;;;;;5073531;22;20427;-71
2023/04/25 02:40:09;;;;;;;13.23;3.10;;;10.50;94.30;;;;;;5514526;22;20058;-68
2023/04/25 02:42:35;;;;;;;6.68;2.92;;;10.50;94.50;;;;;;4993568;28;20022;-68
2023/04/25 02:45:01;;;;;;;9.00;2.83;;;10.40;94.30;;;;;;4975024;28;20149;-68
2023/04/25 02:47:27;;;;;;;7.10;3.00;;;10.40;94.80;;;;;;4992414;28;20053;-68
2023/04/25 02:49:53;;;;;;;9.27;2.58;;;10.40;94.80;;;;;;4971358;28;20038;-68
2023/04/25 02:52:19;;;;;;;5.75;3.17;;;10.40;95.00;;;;;;4973834;28;20101;-68
2023/04/25 02:54:52;;;;;;;3.70;2.70;;;10.40;94.30;;;;;;4962679;28;20738;-68
2023/04/25 02:57:17;;;;;;;10.63;3.38;;;10.30;94.80;;;;;;4963056;28;20022;-67
2023/04/25 02:59:43;;;;;;;5.00;2.45;;;10.30;95.00;;;;;;4970447;28;20093;-68
2023/04/25 03:02:09;;;;;;;8.18;3.60;;;10.30;95.10;;;;;;4976701;28;20944;-68
2023/04/25 03:04:35;;;;;;;6.10;2.67;;;10.30;95.00;;;;;;4974086;28;20153;-68
2023/04/25 03:07:01;;;;;;;7.43;2.85;;;10.30;95.00;;;;;;4976776;28;20047;-67
2023/04/25 03:09:27;;;;;;;9.35;3.30;;;10.30;95.10;;;;;;4960953;28;20724;-67
2023/04/25 03:11:53;;;;;;;4.60;2.97;;;10.30;95.10;;;;;;4961078;28;20181;-67
2023/04/25 03:14:19;;;;;;;7.75;3.10;;;10.30;95.30;;;;;;4964461;28;20472;-67
2023/04/25 03:16:45;;;;;;;6.47;3.20;;;10.30;95.00;;;;;;4961271;28;20246;-68
2023/04/25 03:19:11;;;;;;;8.48;3.13;;;10.30;95.00;;;;;;4971613;28;20103;-67
2023/04/25 03:21:37;;;;;;;6.80;2.67;;;10.30;95.20;;;;;;4967426;28;20035;-67
2023/04/25 03:24:04;;;;;;;7.40;3.30;;;10.30;95.20;;;;;;4975008;28;20133;-67
2023/04/25 03:26:30;;;;;;;8.35;3.10;;;10.40;95.20;;;;;;4962130;28;20030;-67
2023/04/25 03:28:56;;;;;;;7.05;3.20;;;10.40;95.20;;;;;;4960803;28;20039;-67
2023/04/25 03:31:22;;;;;;;5.10;2.78;;;10.40;95.40;;;;;;4960988;28;20044;-68
2023/04/25 03:33:48;;;;;;;5.43;3.13;;;10.40;95.00;;;;;;4959519;28;20962;-67
2023/04/25 03:36:14;;;;;;;6.90;3.10;;;10.40;95.20;;;;;;4972106;28;20037;-67
2023/04/25 03:38:41;;;;;;;8.57;3.75;;;10.40;95.30;;;;;;4961326;28;20213;-67
2023/04/25 03:41:08;;;;;;;5.07;3.28;;;10.40;95.20;;;;;;4959403;28;20038;-67
2023/04/25 03:43:43;;;;;;;9.57;3.00;;;10.40;95.10;;;;;;4961915;28;20161;-67
2023/04/25 03:46:12;;;;;;;6.07;3.10;;;10.40;95.30;;;;;;4963091;28;20130;-67
2023/04/25 03:48:39;;;;;;;6.43;3.03;;;10.40;95.50;;;;;;4961388;28;20018;-67
2023/04/25 03:51:06;;;;;;;6.45;2.40;;;10.40;95.20;;;;;;4959365;28;20026;-67
2023/04/25 03:53:35;;;;;;;6.10;2.70;;;10.40;95.80;;;;;;4961849;28;20046;-67
2023/04/25 03:56:13;;;;;;;15.05;3.45;;;10.40;95.60;;;;;;4968048;28;20046;-67
2023/04/25 03:58:39;;;;;;;8.35;3.08;;;10.50;95.80;;;;;;4957918;28;20414;-67
2023/04/25 04:01:07;;;;;;;7.18;3.30;;;10.50;95.70;;;;;;4960444;28;20120;-67
2023/04/25 04:03:35;;;;;;;7.18;2.90;;;10.50;95.50;;;;;;4958365;28;20026;-67
2023/04/25 04:06:05;;;;;;;5.40;2.88;;;10.50;95.40;;;;;;4962825;28;20035;-67
2023/04/25 04:08:35;;;;;;;8.52;3.30;;;10.50;95.60;;;;;;4961153;28;20030;-67
2023/04/25 04:11:01;;;;;;;11.57;4.13;;;10.60;95.60;;;;;;4957915;28;20030;-67
2023/04/25 04:13:27;;;;;;;6.95;3.05;;;10.60;95.40;;;;;;4960228;28;20037;-67
2023/04/25 04:15:53;;;;;;;9.70;3.70;;;10.60;95.60;;;;;;4970978;28;20034;-67
2023/04/25 04:18:19;;;;;;;12.18;4.15;;;10.60;95.40;;;;;;4973113;28;20570;-67
2023/04/25 04:20:45;;;;;;;6.75;3.47;;;10.60;95.40;;;;;;4961557;28;20038;-67
2023/04/25 04:23:12;;;;;;;9.05;3.65;;;10.50;95.30;;;;;;4961476;28;20038;-67
2023/04/25 04:25:37;;;;;;;7.25;3.22;;;10.50;95.70;;;;;;4973416;28;20041;-67
2023/04/25 04:28:08;;;;;;;9.68;3.42;;;10.50;95.60;;;;;;4959828;28;20107;-67
2023/04/25 04:30:46;;;;;;;8.02;3.22;;;10.50;95.70;;;;;;4969536;28;20899;-67
2023/04/25 04:33:13;;;;;;;8.50;3.85;;;10.40;95.70;;;;;;4960468;28;20069;-67
2023/04/25 04:35:41;;;;;;;6.70;3.13;;;10.50;96.10;;;;;;4960281;28;20375;-67
2023/04/25 04:38:07;;;;;;;9.20;3.90;;;10.40;96.20;;;;;;4969204;28;20035;-67
2023/04/25 04:40:35;;;;;;;8.90;3.45;;;10.50;96.30;;;;;;4956677;28;20030;-67
2023/04/25 04:43:08;;;;;;;5.40;3.63;;;10.50;96.10;;;;;;4960669;28;20085;-67
2023/04/25 04:45:45;;;;;;;7.80;3.92;;;10.50;96.40;;;;;;4961233;28;20031;-67
2023/04/25 04:48:35;;;;;;;7.35;3.75;;;10.50;96.60;;;;;;4956918;28;20034;-67
2023/04/25 04:51:20;;;;;;;11.38;4.43;;;10.60;96.70;;;;;;4974478;28;20107;-67
2023/04/25 04:54:02;;;;;;;9.68;3.33;;;10.60;96.90;;;;;;4958729;28;20042;-67
2023/04/25 04:56:48;;;;;;;6.95;4.30;;;10.60;97.10;;;;;;4959073;28;20504;-67
2023/04/25 04:59:35;;;;;;;8.90;3.50;;;10.60;97.10;;;;;;4972036;28;20061;-67
2023/04/25 05:02:33;;;;;;;7.82;3.35;;;10.70;97.20;;;;;;4956900;28;20788;-67
2023/04/25 05:05:08;;;;;;;14.88;4.05;;;10.70;97.50;;;;;;4962105;28;20038;-68
2023/04/25 05:07:58;;;;;;;8.20;3.95;;;10.80;97.10;;;;;;4961111;28;20038;-68
2023/04/25 05:10:47;;;;;;;7.95;4.40;;;10.80;96.90;;;;;;4956604;28;20062;-67
2023/04/25 05:13:31;;;;;;;7.55;3.65;;;10.80;97.10;;;;;;4972205;28;20849;-68
2023/04/25 05:16:13;;;;;;;8.15;3.40;;;10.80;96.70;;;;;;4961125;28;20533;-68
2023/04/25 05:18:54;;;;;;;8.93;3.80;;;10.80;96.70;;;;;;4971002;28;20034;-67
2023/04/25 05:21:43;;;;;;;8.48;3.83;;;10.80;96.70;;;;;;4964281;28;20034;-67
2023/04/25 05:24:29;;;;;;;12.50;4.82;;;10.80;96.60;;;;;;4971529;28;20607;-68
2023/04/25 05:27:13;;;;;;;9.57;3.85;;;10.80;96.80;;;;;;4976777;28;20126;-68
2023/04/25 05:30:05;;;;;;;6.22;3.53;;;11.00;97.00;;;;;;4965238;28;20455;-68
2023/04/25 05:32:46;;;;;;;5.63;3.60;;;11.10;96.70;;;;;;4963103;28;20037;-68
2023/04/25 05:35:13;;;;;;;9.50;3.75;;;11.10;96.70;;;;;;4963433;28;20168;-67
2023/04/25 05:37:45;;;;;;;8.50;4.43;;;11.30;96.60;;;;;;4963742;28;20041;-67
2023/04/25 05:40:13;;;;;;;10.80;4.55;;;11.50;95.80;;;;;;4963138;28;20588;-67
2023/04/25 05:42:58;;;;;;;7.30;3.40;;;11.50;95.00;;;;;;4974670;28;20100;-67
2023/04/25 05:45:42;;;;;;;9.65;3.47;;;11.60;95.00;;;;;;4978322;28;20083;-67
2023/04/25 05:48:29;;;;;;;5.85;3.72;;;11.60;95.00;;;;;;4962798;28;20037;-67
2023/04/25 05:51:25;;;;;;;7.20;3.88;;;11.50;95.00;;;;;;4943546;28;20039;-67
2023/04/25 05:54:17;;;;;;;10.38;4.07;;;11.40;94.80;;;;;;4965482;28;20546;-67
2023/04/25 05:56:44;;;;;;;8.02;3.88;;;11.30;95.20;;;;;;4962849;28;20029;-67
2023/04/25 05:59:09;;;;;;;6.57;3.28;;;11.30;95.20;;;;;;4974365;28;20034;-67
2023/04/25 06:01:35;;;;;;;14.35;3.90;;;11.30;95.10;;;;;;4967512;28;20034;-67
2023/04/25 06:04:01;;;;;;;9.18;3.50;;;11.40;95.10;;;;;;4959589;28;20035;-67
2023/04/25 06:06:27;;;;;;;8.85;3.22;;;11.50;95.10;;;;;;4962639;28;20038;-67
2023/04/25 06:08:53;;;;;;;12.05;4.15;;;11.60;94.80;;;;;;4974745;28;20022;-67
2023/04/25 06:11:19;;;;;;;9.55;3.60;;;11.60;94.60;;;;;;4962067;28;20042;-67
2023/04/25 06:13:46;;;;;;;10.10;3.60;;;11.50;94.50;;;;;;4974172;28;20035;-67
2023/04/25 06:16:12;;;;;;;7.15;3.50;;;11.50;94.90;;;;;;4962332;28;20041;-67
2023/04/25 06:18:38;;;;;;;9.13;3.85;;;11.60;94.80;;;;;;4972680;28;20729;-67
2023/04/25 06:21:04;;;;;;;6.13;3.75;;;11.50;94.60;;;;;;4973537;28;20037;-67
2023/04/25 06:23:30;;;;;;;8.70;3.63;;;11.60;94.90;;;;;;4978962;28;20101;-68
2023/04/25 06:26:01;;;;;;;11.60;4.53;;;11.70;94.70;;;;;;4962605;28;20501;-68
2023/04/25 06:28:29;;;;;;;11.68;4.07;;;11.70;94.30;;;;;;4963501;28;20029;-68
2023/04/25 06:30:55;;;;;;;10.50;3.08;;;11.70;94.20;;;;;;4963258;28;20030;-67
2023/04/25 06:33:24;;;;;;;9.07;3.65;;;11.70;94.50;;;;;;4960763;28;20031;-67
2023/04/25 06:35:50;;;;;;;6.05;3.38;;;11.70;94.40;;;;;;4961105;28;20031;-67
2023/04/25 06:38:20;;;;;;;7.07;3.40;;;11.60;94.60;;;;;;4962532;28;20065;-67
2023/04/25 06:40:49;;;;;;;9.60;4.22;;;11.60;95.00;;;;;;4958789;28;20560;-67
2023/04/25 06:43:18;;;;;;;12.00;4.70;;;11.60;94.80;;;;;;4971908;28;20050;-67
2023/04/25 06:46:03;;;;;;;9.50;3.85;;;11.50;94.50;;;;;;4974147;28;20413;-68
2023/04/25 06:48:31;;;;;;;10.40;3.25;;;11.50;94.50;;;;;;4958634;28;20494;-68
2023/04/25 06:50:58;;;;;;;3.97;2.35;;;11.50;94.80;;;;;;4963111;28;20045;-68
2023/04/25 06:53:25;;;;;;;7.22;2.88;;;11.50;94.70;;;;;;4962251;28;20026;-69
2023/04/25 06:55:57;;;;;;;3.38;2.30;;;11.40;95.40;;;;;;4978584;28;20042;-70
2023/04/25 06:58:26;;;;;;;6.22;2.35;;;11.30;95.70;;;;;;4962771;28;20042;-67
2023/04/25 07:01:08;;;;;;;5.05;2.92;;;11.30;95.90;;;;;;4972866;28;20120;-67
2023/04/25 07:03:34;;;;;;;10.75;3.28;;;11.30;96.10;;;;;;4974291;28;20486;-67
2023/04/25 07:06:06;;;;;;;10.05;2.65;;;11.20;95.80;;;;;;4963337;28;20050;-67
2023/04/25 07:08:31;;;;;;;8.30;2.78;;;11.20;96.00;;;;;;4963575;28;20494;-67
2023/04/25 07:10:58;;;;;;;12.27;3.78;;;11.20;96.00;;;;;;4968037;28;20026;-68
2023/04/25 07:13:24;;;;;;;7.43;3.08;;;11.30;95.80;;;;;;4977450;28;20500;-66
2023/04/25 07:15:49;;;;;;;13.02;3.00;;;11.40;95.80;;;;;;4961625;28;20034;-69
2023/04/25 07:18:18;;;;;;;11.50;3.17;;;11.50;95.00;;;;;;4978072;28;20510;-68
2023/04/25 07:20:44;;;;;;;14.50;2.90;;;11.50;95.00;;;;;;4975745;28;20045;-65
2023/04/25 07:23:10;;;;;;;9.50;2.70;;;11.50;94.70;;;;;;4962386;28;20573;-69
2023/04/25 07:25:36;;;;;;;12.63;4.05;;;11.50;94.40;;;;;;4967758;28;20522;-70
2023/04/25 07:28:02;;;;;;;15.90;6.38;;;11.60;94.20;;;;;;4958568;28;20042;-68
2023/04/25 07:30:28;;;;;;;18.00;4.65;;;11.70;94.30;;;;;;4974924;28;20038;-68
2023/04/25 07:32:55;;;;;;;15.30;3.45;;;11.90;94.20;;;;;;4961698;28;20033;-69
2023/04/25 07:35:21;;;;;;;23.95;3.70;;;12.00;94.10;;;;;;4969974;28;20108;-67
2023/04/25 07:37:47;;;;;;;8.85;3.45;;;12.10;93.70;;;;;;4959233;28;20101;-70
2023/04/25 07:40:23;;;;;;;19.15;4.15;;;12.10;92.90;;;;;;4961025;28;20124;-69
2023/04/25 07:42:53;;;;;;;15.18;3.45;;;12.20;93.10;;;;;;4956900;28;20037;-70
2023/04/25 07:45:30;;;;;;;13.50;3.35;;;12.10;93.80;;;;;;4958800;28;20034;-69
2023/04/25 07:47:57;;;;;;;6.65;2.28;;;12.10;93.90;;;;;;4959157;28;20037;-66
2023/04/25 07:50:24;;;;;;;9.82;3.00;;;12.10;93.20;;;;;;4960723;28;20063;-68
2023/04/25 07:52:49;;;;;;;13.15;3.47;;;12.10;93.20;;;;;;4961344;28;20176;-67
2023/04/25 07:55:26;;;;;;;9.07;3.35;;;12.00;93.00;;;;;;4943162;28;20033;-70
2023/04/25 07:58:08;;;;;;;20.77;7.28;;;12.00;93.10;;;;;;4975474;28;20026;-69
2023/04/25 08:00:36;;;;;;;20.58;6.50;;;12.00;93.50;;;;;;4945444;28;20338;-69
2023/04/25 08:03:22;;;;;;;15.52;3.13;;;12.30;93.80;;;;;;4969840;28;20026;-68
2023/04/25 08:05:48;;;;;;;15.85;6.32;;;12.50;92.20;;;;;;4960870;28;20153;-70
2023/04/25 08:08:14;;;;;;;12.25;3.42;;;12.60;92.00;;;;;;4960705;28;20080;-69
2023/04/25 08:10:42;;;;;;;9.45;3.15;;;12.70;91.30;;;;;;4957848;28;20565;-70
2023/04/25 08:13:08;;;;;;;8.45;3.25;;;12.80;91.30;;;;;;4959114;28;20031;-70
2023/04/25 08:15:34;;;;;;;11.55;2.67;;;12.80;91.10;;;;;;4957890;28;20719;-70
2023/04/25 08:18:00;;;;;;;16.15;2.75;;;12.80;90.60;;;;;;4972986;28;20026;-70
2023/04/25 08:20:26;;;;;;;10.20;2.78;;;12.80;91.40;;;;;;4966719;28;20026;-68
2023/04/25 08:22:55;;;;;;;14.93;2.38;;;12.90;90.80;;;;;;4973182;28;20676;-70
2023/04/25 08:25:28;;;;;;;13.15;2.40;;;13.00;88.50;;;;;;4959435;28;20062;-69
2023/04/25 08:27:54;;;;;;;6.75;2.67;;;13.10;88.70;;;;;;4959776;28;20636;-68
2023/04/25 08:30:21;;;;;;;9.73;4.35;;;13.50;87.00;;;;;;4972332;28;20403;-67
2023/04/25 08:32:47;;;;;;;13.63;2.65;;;13.90;84.30;;;;;;4969749;28;20109;-67
2023/04/25 08:35:32;;;;;;;11.95;2.30;;;14.40;80.30;;;;;;4971902;28;20122;-70
2023/04/25 08:38:00;;;;;;;12.95;2.50;;;14.80;73.80;;;;;;4959600;28;20073;-67
2023/04/25 08:40:29;;;;;;;8.75;2.88;;;15.00;70.00;;;;;;4959148;28;20034;-65
2023/04/25 08:43:03;;;;;;;11.48;2.83;;;14.80;70.50;;;;;;4970433;28;20035;-69
2023/04/25 08:45:33;;;;;;;16.55;4.78;;;14.70;72.30;;;;;;4959466;28;20062;-69
2023/04/25 08:48:00;;;;;;;10.48;3.63;;;14.90;73.00;;;;;;4972113;28;20424;-69
2023/04/25 08:50:26;;;;;;;20.65;6.15;;;15.30;72.50;;;;;;4957029;28;20034;-69
2023/04/25 08:52:54;;;;;;;29.15;10.73;;;15.70;71.50;;;;;;4958154;28;20037;-69
2023/04/25 08:55:21;;;;;;;11.27;4.30;;;15.80;68.40;;;;;;4960281;28;20136;-70
2023/04/25 08:57:51;;;;;;;13.75;3.38;;;15.70;64.00;;;;;;4959849;28;20048;-68
2023/04/25 09:00:18;;;;;;;15.93;4.13;;;15.50;65.20;;;;;;4953285;28;20074;-68
2023/04/25 09:02:47;;;;;;;12.68;3.95;;;15.50;65.60;;;;;;4962699;28;20039;-68
2023/04/25 09:05:14;;;;;;;10.38;4.28;;;15.70;64.30;;;;;;4958287;28;20104;-68
2023/04/25 09:07:40;;;;;;;17.30;3.92;;;15.90;65.30;;;;;;4958362;28;20082;-66
2023/04/25 09:10:06;;;;;;;15.10;4.63;;;16.00;64.20;;;;;;4968878;28;20038;-65
2023/04/25 09:12:36;;;;;;;15.63;3.35;;;16.40;65.70;;;;;;4959022;28;20023;-66
2023/04/25 09:15:07;;;;;;;13.15;4.25;;;16.80;62.70;;;;;;4959334;28;20081;-66
2023/04/25 09:17:58;;;;;;;11.18;2.13;;;16.90;63.70;;;;;;4953672;28;20045;-67
2023/04/25 09:20:28;;;;;;;12.02;2.55;;;16.70;59.50;;;;;;4970233;28;20718;-66
2023/04/25 09:23:03;;;;;;;19.88;3.72;;;16.60;59.10;;;;;;4968206;28;20035;-69
2023/04/25 09:25:38;;;;;;;13.55;2.00;;;16.40;57.60;;;;;;4960683;28;20027;-66
2023/04/25 09:28:06;;;;;;;10.73;2.43;;;16.30;58.40;;;;;;4973220;28;20034;-66
2023/04/25 09:30:35;;;;;;;11.82;3.10;;;16.00;58.60;;;;;;4959697;28;20027;-65
2023/04/25 09:33:30;;;;;;;9.43;2.30;;;15.80;60.50;;;;;;4959826;28;20034;-63
2023/04/25 09:36:07;;;;;;;9.88;2.72;;;15.70;60.80;;;;;;4970150;28;20525;-63
2023/04/25 09:39:00;;;;;;;12.57;3.22;;;16.30;62.60;;;;;;4959981;28;20121;-67
2023/04/25 09:41:32;;;;;;;9.35;2.45;;;17.20;56.60;;;;;;4960610;28;20053;-67
2023/04/25 09:44:01;;;;;;;13.10;3.53;;;17.70;55.10;;;;;;4960570;28;20030;-67
2023/04/25 09:46:37;;;;;;;7.55;2.05;;;17.80;53.00;;;;;;4958981;28;20653;-67
2023/04/25 09:49:08;;;;;;;13.38;2.88;;;17.60;52.10;;;;;;4958661;28;20034;-65
2023/04/25 09:51:57;;;;;;;8.25;2.15;;;17.30;54.70;;;;;;4959576;28;20479;-64
2023/04/25 09:54:26;;;;;;;7.78;2.25;;;17.10;53.60;;;;;;4970501;28;20046;-68
2023/04/25 09:57:27;;;;;;;8.85;2.25;;;16.90;55.10;;;;;;4961990;28;20034;-68
2023/04/25 09:59:56;;;;;;;9.32;2.90;;;16.50;54.50;;;;;;4962106;28;20077;-66
2023/04/25 10:02:25;;;;;;;13.50;2.70;;;16.30;56.30;;;;;;4962668;28;20027;-67
2023/04/25 10:04:55;;;;;;;8.02;2.97;;;16.20;55.20;;;;;;4959364;28;20038;-67
2023/04/25 10:07:28;;;;;;;7.07;2.28;;;16.10;56.00;;;;;;4973765;28;20101;-67
2023/04/25 10:10:05;;;;;;;9.57;2.35;;;16.00;56.00;;;;;;4960483;28;20057;-67
2023/04/25 10:12:32;;;;;;;15.18;2.97;;;16.00;57.30;;;;;;4976967;28;20117;-67
2023/04/25 10:14:59;;;;;;;8.68;2.70;;;16.00;57.00;;;;;;4974482;28;20122;-68
2023/04/25 10:17:29;;;;;;;11.10;2.97;;;15.90;55.80;;;;;;4978219;28;20077;-66
2023/04/25 10:19:56;;;;;;;9.27;2.80;;;15.90;58.30;;;;;;4974426;28;20578;-67
2023/04/25 10:22:38;;;;;;;8.70;2.05;;;16.00;57.30;;;;;;4974825;28;20085;-67
2023/04/25 10:25:05;;;;;;;8.27;1.95;;;15.80;56.40;;;;;;4977724;28;20026;-67
2023/04/25 10:27:32;;;;;;;7.55;2.00;;;15.60;55.10;;;;;;4975465;28;20486;-67
2023/04/25 10:30:16;;;;;;;9.10;2.20;;;15.40;56.00;;;;;;4976093;28;20034;-68
2023/04/25 10:32:43;;;;;;;8.93;2.10;;;15.40;56.30;;;;;;4967820;28;20042;-67
2023/04/25 10:35:24;;;;;;;5.93;2.25;;;15.40;56.50;;;;;;4971566;28;20061;-67
2023/04/25 10:38:14;;;;;;;15.32;2.75;;;15.50;56.80;;;;;;4972514;28;20492;-68
2023/04/25 10:40:40;;;;;;;8.85;2.20;;;15.20;55.80;;;;;;4960285;28;20046;-67
2023/04/25 10:43:27;;;;;;;6.28;1.92;;;15.10;57.40;;;;;;4971782;28;20085;-68
2023/04/25 10:45:53;;;;;;;7.82;1.70;;;15.00;56.90;;;;;;4974294;28;20090;-68
2023/04/25 10:48:30;;;;;;;6.70;1.90;;;14.90;55.20;;;;;;4975414;28;20554;-67
2023/04/25 10:51:15;;;;;;;6.05;1.65;;;14.70;57.60;;;;;;4974527;28;20042;-67
2023/04/25 10:53:45;;;;;;;4.47;1.48;;;14.70;58.70;;;;;;4977225;28;20030;-67
2023/04/25 10:56:17;;;;;;;6.88;1.88;;;14.70;58.20;;;;;;4976496;28;20659;-67
2023/04/25 10:58:45;;;;;;;11.15;2.08;;;14.60;58.80;;;;;;4975317;28;20628;-67
2023/04/25 11:01:13;;;;;;;9.00;2.13;;;14.60;57.30;;;;;;4974986;28;20034;-67
2023/04/25 11:03:42;;;;;;;6.32;1.92;;;14.50;57.80;;;;;;4973400;28;20034;-68
2023/04/25 11:06:23;;;;;;;6.40;1.65;;;14.50;57.60;;;;;;4968732;28;20045;-67
2023/04/25 11:08:51;;;;;;;4.20;1.67;;;14.30;58.10;;;;;;4976514;28;20026;-67
2023/04/25 11:11:18;;;;;;;10.45;2.95;;;14.10;59.00;;;;;;4976512;28;20413;-67
2023/04/25 11:13:49;;;;;;;8.95;2.47;;;13.90;58.40;;;;;;4973065;28;20056;-67
2023/04/25 11:16:15;;;;;;;10.57;2.28;;;13.80;58.70;;;;;;4968042;28;20179;-67
2023/04/25 11:18:42;;;;;;;7.43;2.80;;;13.70;58.90;;;;;;4964003;28;20048;-67
2023/04/25 11:21:08;;;;;;;5.82;1.70;;;13.60;57.50;;;;;;4972040;28;20035;-67
2023/04/25 11:23:34;;;;;;;6.72;2.10;;;13.60;56.70;;;;;;4975362;28;20034;-67
2023/04/25 11:26:01;;;;;;;6.85;2.22;;;13.60;58.30;;;;;;4974105;28;20076;-67
2023/04/25 11:28:27;;;;;;;12.85;1.50;;;13.60;57.80;;;;;;4975059;28;20569;-67
2023/04/25 11:30:52;;;;;;;6.60;1.48;;;13.60;56.70;;;;;;4972162;28;20023;-69
2023/04/25 11:33:23;;;;;;;8.48;1.50;;;13.70;56.40;;;;;;4975859;28;20755;-67
2023/04/25 11:35:49;;;;;;;5.70;1.67;;;13.60;56.60;;;;;;4972447;28;20022;-67
2023/04/25 11:38:15;;;;;;;5.00;1.60;;;13.50;55.80;;;;;;4975995;28;20031;-67
2023/04/25 11:40:41;;;;;;;4.80;1.75;;;13.50;57.40;;;;;;4961836;28;20027;-67
2023/04/25 11:43:08;;;;;;;7.18;1.70;;;13.50;58.70;;;;;;4975263;28;20512;-69
2023/04/25 11:45:37;;;;;;;7.40;2.00;;;13.60;58.60;;;;;;4962412;28;20018;-68
2023/04/25 11:48:03;;;;;;;9.63;1.65;;;13.60;59.00;;;;;;4971862;28;20780;-70
2023/04/25 11:50:29;;;;;;;5.65;1.50;;;13.50;56.50;;;;;;4972344;28;20154;-69
2023/04/25 11:52:56;;;;;;;8.05;1.52;;;13.60;56.40;;;;;;4974636;28;20123;-69
2023/04/25 11:55:22;;;;;;;4.38;1.30;;;13.60;57.30;;;;;;4970126;28;20046;-68
2023/04/25 11:57:52;;;;;;;6.90;1.60;;;13.60;56.70;;;;;;4965894;28;20030;-68
2023/04/25 12:00:22;;;;;;;6.63;1.25;;;13.80;56.60;;;;;;4972824;28;20875;-68
2023/04/25 12:02:53;;;;;;;3.22;1.40;;;13.90;57.00;;;;;;4970898;28;20041;-68
2023/04/25 12:05:20;;;;;;;3.45;1.52;;;13.90;55.70;;;;;;4966253;28;20176;-68
2023/04/25 12:07:46;;;;;;;4.85;1.70;;;14.10;55.60;;;;;;4976341;28;20521;-68
2023/04/25 12:10:15;;;;;;;6.63;1.55;;;14.30;55.30;;;;;;4973910;28;20034;-68
2023/04/25 12:12:46;;;;;;;5.72;1.70;;;14.40;54.30;;;;;;4976121;28;20045;-68
2023/04/25 12:15:22;;;;;;;5.10;1.60;;;14.60;55.10;;;;;;4974516;28;20645;-68
2023/04/25 12:17:51;;;;;;;6.65;2.10;;;14.80;55.10;;;;;;4970893;28;20023;-68
2023/04/25 12:20:23;;;;;;;10.02;2.03;;;14.80;53.10;;;;;;4978767;28;20034;-68
2023/04/25 12:22:50;;;;;;;12.30;2.20;;;14.80;52.50;;;;;;4970743;28;20587;-68
2023/04/25 12:25:35;;;;;;;7.70;1.80;;;14.60;51.60;;;;;;4969569;28;20121;-68
2023/04/25 12:28:14;;;;;;;10.13;1.90;;;14.40;53.40;;;;;;4975612;28;20635;-68
2023/04/25 12:31:14;;;;;;;5.30;1.88;;;14.30;54.80;;;;;;4973336;28;20035;-68
2023/04/25 12:33:42;;;;;;;5.07;1.55;;;14.20;55.20;;;;;;4939426;28;20121;-67
2023/04/25 12:36:12;;;;;;;7.80;2.45;;;14.10;54.60;;;;;;4969555;28;20038;-67
2023/04/25 12:38:40;;;;;;;11.23;3.15;;;14.10;54.70;;;;;;4975961;28;20046;-67
2023/04/25 12:41:06;;;;;;;14.63;10.45;;;14.00;55.50;;;;;;4971625;28;20133;-67
2023/04/25 12:43:33;;;;;;;7.75;5.18;;;14.00;55.50;;;;;;4971422;28;20109;-68
2023/04/25 12:45:58;;;;;;;8.57;2.33;;;13.90;56.50;;;;;;4966994;28;20138;-68
2023/04/25 12:48:24;;;;;;;4.60;2.03;;;13.90;56.60;;;;;;4974925;28;20105;-67
2023/04/25 12:50:51;;;;;;;6.75;1.60;;;13.90;56.80;;;;;;4974539;28;20129;-67
2023/04/25 12:53:21;;;;;;;8.07;1.80;;;14.00;56.20;;;;;;4975759;28;20023;-68
2023/04/25 12:55:48;;;;;;;5.97;1.77;;;13.90;55.70;;;;;;4978888;28;20139;-70
2023/04/25 12:58:15;;;;;;;1.80;1.02;;;13.90;56.30;;;;;;4975227;28;20031;-68
2023/04/25 13:00:41;;;;;;;7.68;1.40;;;13.90;54.80;;;;;;4973080;28;20031;-70
2023/04/25 13:03:08;;;;;;;4.43;1.25;;;13.90;55.30;;;;;;4971252;28;20062;-68
2023/04/25 13:05:35;;;;;;;4.75;1.63;;;14.10;54.60;;;;;;4963913;28;20040;-67
2023/04/25 13:08:01;;;;;;;7.53;2.08;;;14.10;55.20;;;;;;4973175;28;20513;-68